sensor_id;sensor_type;location;lat;lon;timestamp;pressure;altitude;pressure_sealevel;temperature;humidity
58662;BME280;44432;49.786;22.760;2023-04-16T00:00:37;99129.42;;;5.60;81.14
58662;BME280;44432;49.786;22.760;2023-04-16T00:03:28;99130.36;;;5.51;80.97
58662;BME280;44432;49.786;22.760;2023-04-16T00:05:58;99132.13;;;5.41;80.64
58662;BME280;44432;49.786;22.760;2023-04-16T00:08:29;99132.27;;;5.28;80.65
58662;BME280;44432;49.786;22.760;2023-04-16T00:11:00;99136.56;;;5.17;81.00
58662;BME280;44432;49.786;22.760;2023-04-16T00:13:30;99140.67;;;5.09;81.18
58662;BME280;44432;49.786;22.760;2023-04-16T00:16:01;99144.69;;;5.00;81.08
58662;BME280;44432;49.786;22.760;2023-04-16T00:18:32;99151.42;;;4.91;81.25
58662;BME280;44432;49.786;22.760;2023-04-16T00:21:02;99146.80;;;4.83;81.53
58662;BME280;44432;49.786;22.760;2023-04-16T00:23:33;99152.45;;;4.77;81.67
58662;BME280;44432;49.786;22.760;2023-04-16T00:26:04;99153.45;;;4.71;81.85
58662;BME280;44432;49.786;22.760;2023-04-16T00:28:35;99153.23;;;4.66;82.11
58662;BME280;44432;49.786;22.760;2023-04-16T00:31:05;99159.90;;;4.63;82.35
58662;BME280;44432;49.786;22.760;2023-04-16T00:33:36;99158.98;;;4.57;82.33
58662;BME280;44432;49.786;22.760;2023-04-16T00:36:07;99162.87;;;4.47;82.31
58662;BME280;44432;49.786;22.760;2023-04-16T00:38:38;99161.88;;;4.36;82.45
58662;BME280;44432;49.786;22.760;2023-04-16T00:41:09;99160.65;;;4.25;82.63
58662;BME280;44432;49.786;22.760;2023-04-16T00:43:40;99163.72;;;4.21;83.19
58662;BME280;44432;49.786;22.760;2023-04-16T00:46:11;99164.85;;;4.19;83.63
58662;BME280;44432;49.786;22.760;2023-04-16T00:48:44;99163.19;;;4.16;83.81
58662;BME280;44432;49.786;22.760;2023-04-16T00:51:15;99168.17;;;4.15;84.23
58662;BME280;44432;49.786;22.760;2023-04-16T00:53:46;99168.90;;;4.16;84.32
58662;BME280;44432;49.786;22.760;2023-04-16T00:56:18;99170.52;;;4.17;84.34
58662;BME280;44432;49.786;22.760;2023-04-16T00:58:50;99168.46;;;4.17;84.30
58662;BME280;44432;49.786;22.760;2023-04-16T01:01:21;99164.60;;;4.16;84.32
58662;BME280;44432;49.786;22.760;2023-04-16T01:03:52;99159.81;;;4.13;84.25
58662;BME280;44432;49.786;22.760;2023-04-16T01:06:24;99162.02;;;4.11;84.43
58662;BME280;44432;49.786;22.760;2023-04-16T01:08:55;99160.81;;;4.08;84.11
58662;BME280;44432;49.786;22.760;2023-04-16T01:11:25;99162.86;;;4.03;84.25
58662;BME280;44432;49.786;22.760;2023-04-16T01:13:56;99164.65;;;4.00;84.38
58662;BME280;44432;49.786;22.760;2023-04-16T01:16:27;99165.45;;;3.98;84.57
58662;BME280;44432;49.786;22.760;2023-04-16T01:18:57;99161.38;;;3.95;84.55
58662;BME280;44432;49.786;22.760;2023-04-16T01:21:28;99158.21;;;3.96;84.80
58662;BME280;44432;49.786;22.760;2023-04-16T01:24:02;99162.28;;;3.91;84.22
58662;BME280;44432;49.786;22.760;2023-04-16T01:26:33;99165.30;;;3.88;84.50
58662;BME280;44432;49.786;22.760;2023-04-16T01:29:04;99170.13;;;3.84;84.44
58662;BME280;44432;49.786;22.760;2023-04-16T01:31:35;99169.27;;;3.79;84.38
58662;BME280;44432;49.786;22.760;2023-04-16T01:34:05;99170.45;;;3.72;84.23
58662;BME280;44432;49.786;22.760;2023-04-16T01:36:36;99174.54;;;3.65;84.14
58662;BME280;44432;49.786;22.760;2023-04-16T01:39:07;99176.39;;;3.59;84.28
58662;BME280;44432;49.786;22.760;2023-04-16T01:41:40;99178.00;;;3.55;84.69
58662;BME280;44432;49.786;22.760;2023-04-16T01:44:10;99180.16;;;3.52;84.54
58662;BME280;44432;49.786;22.760;2023-04-16T01:46:41;99178.71;;;3.47;84.63
58662;BME280;44432;49.786;22.760;2023-04-16T01:49:12;99183.33;;;3.43;84.61
58662;BME280;44432;49.786;22.760;2023-04-16T01:51:43;99179.79;;;3.39;84.51
58662;BME280;44432;49.786;22.760;2023-04-16T01:54:13;99180.16;;;3.36;84.45
58662;BME280;44432;49.786;22.760;2023-04-16T01:56:44;99175.35;;;3.32;84.60
58662;BME280;44432;49.786;22.760;2023-04-16T01:59:14;99186.52;;;3.27;84.50
58662;BME280;44432;49.786;22.760;2023-04-16T02:01:45;99184.23;;;3.21;84.60
58662;BME280;44432;49.786;22.760;2023-04-16T02:04:16;99193.03;;;3.19;84.92
58662;BME280;44432;49.786;22.760;2023-04-16T02:06:46;99188.60;;;3.15;85.03
58662;BME280;44432;49.786;22.760;2023-04-16T02:09:17;99189.41;;;3.12;85.04
58662;BME280;44432;49.786;22.760;2023-04-16T02:11:48;99191.64;;;3.11;85.52
58662;BME280;44432;49.786;22.760;2023-04-16T02:14:18;99193.80;;;3.09;85.13
58662;BME280;44432;49.786;22.760;2023-04-16T02:16:50;99194.36;;;3.07;85.26
58662;BME280;44432;49.786;22.760;2023-04-16T02:19:21;99199.64;;;3.06;85.46
58662;BME280;44432;49.786;22.760;2023-04-16T02:21:53;99197.30;;;3.05;85.76
58662;BME280;44432;49.786;22.760;2023-04-16T02:24:24;99198.54;;;3.04;85.47
58662;BME280;44432;49.786;22.760;2023-04-16T02:26:54;99196.39;;;3.03;85.94
58662;BME280;44432;49.786;22.760;2023-04-16T02:29:25;99200.11;;;3.02;85.76
58662;BME280;44432;49.786;22.760;2023-04-16T02:31:57;99204.38;;;3.01;85.76
58662;BME280;44432;49.786;22.760;2023-04-16T02:34:28;99209.04;;;3.01;85.96
58662;BME280;44432;49.786;22.760;2023-04-16T02:36:59;99216.54;;;3.01;85.66
58662;BME280;44432;49.786;22.760;2023-04-16T02:39:30;99217.88;;;3.02;86.06
58662;BME280;44432;49.786;22.760;2023-04-16T02:42:01;99223.39;;;3.02;86.01
58662;BME280;44432;49.786;22.760;2023-04-16T02:44:31;99223.61;;;3.03;86.34
58662;BME280;44432;49.786;22.760;2023-04-16T02:47:02;99222.17;;;3.04;86.28
58662;BME280;44432;49.786;22.760;2023-04-16T02:49:33;99221.23;;;3.01;85.59
58662;BME280;44432;49.786;22.760;2023-04-16T02:52:04;99219.34;;;2.96;85.59
58662;BME280;44432;49.786;22.760;2023-04-16T02:54:34;99216.58;;;2.92;85.79
58662;BME280;44432;49.786;22.760;2023-04-16T02:57:05;99214.86;;;2.89;85.43
58662;BME280;44432;49.786;22.760;2023-04-16T02:59:35;99218.96;;;2.85;85.90
58662;BME280;44432;49.786;22.760;2023-04-16T03:02:06;99223.69;;;2.83;85.75
58662;BME280;44432;49.786;22.760;2023-04-16T03:04:37;99227.67;;;2.80;86.12
58662;BME280;44432;49.786;22.760;2023-04-16T03:07:07;99234.58;;;2.77;85.87
58662;BME280;44432;49.786;22.760;2023-04-16T03:09:39;99233.18;;;2.73;85.75
58662;BME280;44432;49.786;22.760;2023-04-16T03:12:10;99234.71;;;2.68;85.68
58662;BME280;44432;49.786;22.760;2023-04-16T03:14:40;99231.41;;;2.65;85.83
58662;BME280;44432;49.786;22.760;2023-04-16T03:17:11;99228.95;;;2.60;85.55
58662;BME280;44432;49.786;22.760;2023-04-16T03:19:41;99228.88;;;2.56;85.97
58662;BME280;44432;49.786;22.760;2023-04-16T03:22:12;99229.69;;;2.53;86.08
58662;BME280;44432;49.786;22.760;2023-04-16T03:24:43;99232.92;;;2.52;86.40
58662;BME280;44432;49.786;22.760;2023-04-16T03:27:13;99234.90;;;2.51;86.39
58662;BME280;44432;49.786;22.760;2023-04-16T03:29:44;99235.52;;;2.52;86.43
58662;BME280;44432;49.786;22.760;2023-04-16T03:32:15;99242.10;;;2.52;86.25
58662;BME280;44432;49.786;22.760;2023-04-16T03:34:45;99246.60;;;2.51;86.09
58662;BME280;44432;49.786;22.760;2023-04-16T03:37:16;99251.25;;;2.50;85.98
58662;BME280;44432;49.786;22.760;2023-04-16T03:39:47;99254.30;;;2.47;86.21
58662;BME280;44432;49.786;22.760;2023-04-16T03:42:18;99253.88;;;2.43;86.00
58662;BME280;44432;49.786;22.760;2023-04-16T03:44:48;99260.45;;;2.41;85.68
58662;BME280;44432;49.786;22.760;2023-04-16T03:47:19;99267.42;;;2.40;86.03
58662;BME280;44432;49.786;22.760;2023-04-16T03:49:50;99266.67;;;2.39;86.05
58662;BME280;44432;49.786;22.760;2023-04-16T03:52:20;99264.65;;;2.38;86.46
58662;BME280;44432;49.786;22.760;2023-04-16T03:54:51;99269.37;;;2.38;86.27
58662;BME280;44432;49.786;22.760;2023-04-16T03:57:22;99270.13;;;2.39;86.30
58662;BME280;44432;49.786;22.760;2023-04-16T03:59:53;99269.50;;;2.40;86.45
58662;BME280;44432;49.786;22.760;2023-04-16T04:02:23;99268.66;;;2.39;86.39
58662;BME280;44432;49.786;22.760;2023-04-16T04:04:54;99274.14;;;2.40;86.51
58662;BME280;44432;49.786;22.760;2023-04-16T04:07:25;99271.77;;;2.41;86.26
58662;BME280;44432;49.786;22.760;2023-04-16T04:09:55;99271.20;;;2.42;86.31
58662;BME280;44432;49.786;22.760;2023-04-16T04:12:26;99275.40;;;2.41;86.28
58662;BME280;44432;49.786;22.760;2023-04-16T04:14:57;99279.31;;;2.41;86.36
58662;BME280;44432;49.786;22.760;2023-04-16T04:17:27;99279.24;;;2.39;86.30
58662;BME280;44432;49.786;22.760;2023-04-16T04:19:58;99281.16;;;2.39;86.25
58662;BME280;44432;49.786;22.760;2023-04-16T04:22:29;99283.61;;;2.41;86.33
58662;BME280;44432;49.786;22.760;2023-04-16T04:25:00;99284.65;;;2.43;86.57
58662;BME280;44432;49.786;22.760;2023-04-16T04:27:30;99291.27;;;2.44;86.57
58662;BME280;44432;49.786;22.760;2023-04-16T04:30:01;99290.04;;;2.47;86.50
58662;BME280;44432;49.786;22.760;2023-04-16T04:32:32;99291.31;;;2.50;86.37
58662;BME280;44432;49.786;22.760;2023-04-16T04:35:03;99293.50;;;2.52;86.46
58662;BME280;44432;49.786;22.760;2023-04-16T04:37:34;99292.46;;;2.56;86.47
58662;BME280;44432;49.786;22.760;2023-04-16T04:40:07;99293.64;;;2.59;86.47
58662;BME280;44432;49.786;22.760;2023-04-16T04:42:38;99295.23;;;2.62;86.13
58662;BME280;44432;49.786;22.760;2023-04-16T04:45:10;99293.84;;;2.66;86.33
58662;BME280;44432;49.786;22.760;2023-04-16T04:47:41;99290.81;;;2.71;86.48
58662;BME280;44432;49.786;22.760;2023-04-16T04:50:12;99293.20;;;2.75;86.41
58662;BME280;44432;49.786;22.760;2023-04-16T04:52:43;99293.02;;;2.80;86.29
58662;BME280;44432;49.786;22.760;2023-04-16T04:55:14;99293.02;;;2.83;86.02
58662;BME280;44432;49.786;22.760;2023-04-16T04:57:44;99296.95;;;2.87;86.03
58662;BME280;44432;49.786;22.760;2023-04-16T05:00:15;99298.69;;;2.94;86.30
58662;BME280;44432;49.786;22.760;2023-04-16T05:02:46;99302.86;;;3.00;86.52
58662;BME280;44432;49.786;22.760;2023-04-16T05:05:17;99306.38;;;3.10;86.24
58662;BME280;44432;49.786;22.760;2023-04-16T05:07:47;99307.98;;;3.19;86.10
58662;BME280;44432;49.786;22.760;2023-04-16T05:10:18;99309.56;;;3.25;85.93
58662;BME280;44432;49.786;22.760;2023-04-16T05:12:49;99309.56;;;3.32;85.98
58662;BME280;44432;49.786;22.760;2023-04-16T05:15:20;99311.70;;;3.36;85.89
58662;BME280;44432;49.786;22.760;2023-04-16T05:17:51;99317.02;;;3.43;85.84
58662;BME280;44432;49.786;22.760;2023-04-16T05:20:22;99323.20;;;3.51;85.71
58662;BME280;44432;49.786;22.760;2023-04-16T05:22:53;99328.05;;;3.60;85.61
58662;BME280;44432;49.786;22.760;2023-04-16T05:25:24;99329.08;;;3.70;85.97
58662;BME280;44432;49.786;22.760;2023-04-16T05:27:54;99323.83;;;3.79;86.03
58662;BME280;44432;49.786;22.760;2023-04-16T05:30:25;99325.73;;;3.87;85.95
58662;BME280;44432;49.786;22.760;2023-04-16T05:32:56;99328.86;;;3.97;86.36
58662;BME280;44432;49.786;22.760;2023-04-16T05:35:26;99325.42;;;4.07;86.21
58662;BME280;44432;49.786;22.760;2023-04-16T05:37:57;99323.91;;;4.18;86.23
58662;BME280;44432;49.786;22.760;2023-04-16T05:40:28;99319.06;;;4.23;85.85
58662;BME280;44432;49.786;22.760;2023-04-16T05:42:59;99315.49;;;4.30;86.20
58662;BME280;44432;49.786;22.760;2023-04-16T05:45:30;99317.67;;;4.44;86.39
58662;BME280;44432;49.786;22.760;2023-04-16T05:48:01;99318.22;;;4.57;86.51
58662;BME280;44432;49.786;22.760;2023-04-16T05:50:32;99319.17;;;4.72;86.79
58662;BME280;44432;49.786;22.760;2023-04-16T05:53:04;99325.46;;;4.89;86.92
58662;BME280;44432;49.786;22.760;2023-04-16T05:55:35;99322.23;;;5.06;86.66
58662;BME280;44432;49.786;22.760;2023-04-16T05:58:06;99323.44;;;5.23;86.61
58662;BME280;44432;49.786;22.760;2023-04-16T06:00:36;99327.36;;;5.42;86.77
58662;BME280;44432;49.786;22.760;2023-04-16T06:03:07;99332.46;;;5.59;86.70
58662;BME280;44432;49.786;22.760;2023-04-16T06:05:38;99332.20;;;5.78;86.24
58662;BME280;44432;49.786;22.760;2023-04-16T06:08:08;99337.98;;;5.97;86.33
58662;BME280;44432;49.786;22.760;2023-04-16T06:10:39;99332.88;;;6.16;85.92
58662;BME280;44432;49.786;22.760;2023-04-16T06:13:10;99339.05;;;6.35;85.85
58662;BME280;44432;49.786;22.760;2023-04-16T06:15:41;99344.42;;;6.52;85.68
58662;BME280;44432;49.786;22.760;2023-04-16T06:18:11;99342.86;;;6.69;85.05
58662;BME280;44432;49.786;22.760;2023-04-16T06:20:42;99347.10;;;6.83;84.85
58662;BME280;44432;49.786;22.760;2023-04-16T06:23:13;99344.26;;;6.98;84.32
58662;BME280;44432;49.786;22.760;2023-04-16T06:25:44;99345.59;;;7.11;84.03
58662;BME280;44432;49.786;22.760;2023-04-16T06:28:14;99343.46;;;7.23;84.01
58662;BME280;44432;49.786;22.760;2023-04-16T06:30:45;99343.05;;;7.34;83.69
58662;BME280;44432;49.786;22.760;2023-04-16T06:33:16;99347.83;;;7.45;83.27
58662;BME280;44432;49.786;22.760;2023-04-16T06:35:46;99348.83;;;7.55;83.04
58662;BME280;44432;49.786;22.760;2023-04-16T06:38:17;99347.58;;;7.67;82.75
58662;BME280;44432;49.786;22.760;2023-04-16T06:40:48;99352.86;;;7.78;82.78
58662;BME280;44432;49.786;22.760;2023-04-16T06:43:19;99355.15;;;7.87;81.82
58662;BME280;44432;49.786;22.760;2023-04-16T06:45:49;99356.48;;;7.95;81.61
58662;BME280;44432;49.786;22.760;2023-04-16T06:48:20;99361.33;;;8.06;81.84
58662;BME280;44432;49.786;22.760;2023-04-16T06:50:51;99356.92;;;8.15;81.16
58662;BME280;44432;49.786;22.760;2023-04-16T06:53:21;99357.30;;;8.24;81.25
58662;BME280;44432;49.786;22.760;2023-04-16T06:55:52;99361.23;;;8.35;81.00
58662;BME280;44432;49.786;22.760;2023-04-16T06:58:23;99360.59;;;8.45;80.88
58662;BME280;44432;49.786;22.760;2023-04-16T07:00:53;99361.88;;;8.53;80.75
58662;BME280;44432;49.786;22.760;2023-04-16T07:03:24;99362.19;;;8.62;80.32
58662;BME280;44432;49.786;22.760;2023-04-16T07:05:56;99364.36;;;8.71;80.14
58662;BME280;44432;49.786;22.760;2023-04-16T07:08:26;99371.11;;;8.81;80.07
58662;BME280;44432;49.786;22.760;2023-04-16T07:10:57;99368.70;;;8.88;79.56
58662;BME280;44432;49.786;22.760;2023-04-16T07:13:28;99372.88;;;8.92;79.42
58662;BME280;44432;49.786;22.760;2023-04-16T07:15:58;99369.83;;;9.01;79.40
58662;BME280;44432;49.786;22.760;2023-04-16T07:18:30;99369.07;;;9.08;79.34
58662;BME280;44432;49.786;22.760;2023-04-16T07:21:00;99364.34;;;9.14;79.36
58662;BME280;44432;49.786;22.760;2023-04-16T07:23:31;99365.23;;;9.24;79.22
58662;BME280;44432;49.786;22.760;2023-04-16T07:26:02;99369.74;;;9.34;79.26
58662;BME280;44432;49.786;22.760;2023-04-16T07:28:33;99370.66;;;9.41;78.92
58662;BME280;44432;49.786;22.760;2023-04-16T07:31:04;99375.64;;;9.47;78.80
58662;BME280;44432;49.786;22.760;2023-04-16T07:33:34;99377.22;;;9.55;78.99
58662;BME280;44432;49.786;22.760;2023-04-16T07:36:06;99380.70;;;9.66;79.07
58662;BME280;44432;49.786;22.760;2023-04-16T07:38:36;99378.05;;;9.72;78.99
58662;BME280;44432;49.786;22.760;2023-04-16T07:41:07;99385.36;;;9.82;79.11
58662;BME280;44432;49.786;22.760;2023-04-16T07:43:38;99389.19;;;9.93;79.00
58662;BME280;44432;49.786;22.760;2023-04-16T07:46:09;99392.83;;;10.01;78.78
58662;BME280;44432;49.786;22.760;2023-04-16T07:48:40;99397.48;;;10.10;78.94
58662;BME280;44432;49.786;22.760;2023-04-16T07:51:10;99401.41;;;10.20;78.80
58662;BME280;44432;49.786;22.760;2023-04-16T07:53:41;99408.55;;;10.27;78.40
58662;BME280;44432;49.786;22.760;2023-04-16T07:56:12;99408.62;;;10.34;78.40
58662;BME280;44432;49.786;22.760;2023-04-16T07:58:42;99414.66;;;10.44;78.07
58662;BME280;44432;49.786;22.760;2023-04-16T08:01:14;99415.55;;;10.52;77.94
58662;BME280;44432;49.786;22.760;2023-04-16T08:03:44;99415.94;;;10.60;77.79
58662;BME280;44432;49.786;22.760;2023-04-16T08:06:15;99416.95;;;10.69;77.50
58662;BME280;44432;49.786;22.760;2023-04-16T08:08:46;99417.34;;;10.73;76.73
58662;BME280;44432;49.786;22.760;2023-04-16T08:11:17;99414.69;;;10.75;76.68
58662;BME280;44432;49.786;22.760;2023-04-16T08:13:48;99418.36;;;10.82;76.37
58662;BME280;44432;49.786;22.760;2023-04-16T08:16:19;99413.55;;;10.85;76.15
58662;BME280;44432;49.786;22.760;2023-04-16T08:18:50;99416.40;;;10.93;76.25
58662;BME280;44432;49.786;22.760;2023-04-16T08:21:21;99417.05;;;11.02;76.19
58662;BME280;44432;49.786;22.760;2023-04-16T08:23:51;99413.48;;;11.08;75.51
58662;BME280;44432;49.786;22.760;2023-04-16T08:26:22;99413.23;;;11.15;75.39
58662;BME280;44432;49.786;22.760;2023-04-16T08:28:54;99408.13;;;11.24;74.96
58662;BME280;44432;49.786;22.760;2023-04-16T08:31:24;99411.42;;;11.26;74.19
58662;BME280;44432;49.786;22.760;2023-04-16T08:33:55;99406.46;;;11.25;74.02
58662;BME280;44432;49.786;22.760;2023-04-16T08:36:26;99410.55;;;11.28;74.50
58662;BME280;44432;49.786;22.760;2023-04-16T08:38:56;99414.83;;;11.33;74.25
58662;BME280;44432;49.786;22.760;2023-04-16T08:41:28;99410.65;;;11.37;74.21
58662;BME280;44432;49.786;22.760;2023-04-16T08:44:02;99415.34;;;11.48;74.28
58662;BME280;44432;49.786;22.760;2023-04-16T08:46:37;99416.86;;;11.57;73.93
58662;BME280;44432;49.786;22.760;2023-04-16T08:49:08;99417.95;;;11.63;73.83
58662;BME280;44432;49.786;22.760;2023-04-16T08:51:48;99416.16;;;11.72;74.07
58662;BME280;44432;49.786;22.760;2023-04-16T08:54:29;99418.60;;;11.81;74.00
58662;BME280;44432;49.786;22.760;2023-04-16T08:57:00;99418.23;;;11.86;73.34
58662;BME280;44432;49.786;22.760;2023-04-16T08:59:33;99423.01;;;11.90;73.14
58662;BME280;44432;49.786;22.760;2023-04-16T09:02:05;99422.97;;;11.94;73.24
58662;BME280;44432;49.786;22.760;2023-04-16T09:04:37;99417.53;;;12.01;73.08
58662;BME280;44432;49.786;22.760;2023-04-16T09:07:08;99421.30;;;12.03;72.48
58662;BME280;44432;49.786;22.760;2023-04-16T09:09:40;99420.73;;;12.03;71.85
58662;BME280;44432;49.786;22.760;2023-04-16T09:12:12;99416.86;;;12.07;71.67
58662;BME280;44432;49.786;22.760;2023-04-16T09:14:43;99422.68;;;12.16;71.58
58662;BME280;44432;49.786;22.760;2023-04-16T09:17:16;99427.73;;;12.27;71.94
58662;BME280;44432;49.786;22.760;2023-04-16T09:19:47;99433.69;;;12.38;71.69
58662;BME280;44432;49.786;22.760;2023-04-16T09:22:18;99430.20;;;12.44;71.76
58662;BME280;44432;49.786;22.760;2023-04-16T09:24:48;99431.92;;;12.55;71.58
58662;BME280;44432;49.786;22.760;2023-04-16T09:27:19;99430.54;;;12.63;71.30
58662;BME280;44432;49.786;22.760;2023-04-16T09:29:51;99435.65;;;12.69;70.92
58662;BME280;44432;49.786;22.760;2023-04-16T09:32:26;99433.48;;;12.72;70.73
58662;BME280;44432;49.786;22.760;2023-04-16T09:34:58;99430.35;;;12.78;70.36
58662;BME280;44432;49.786;22.760;2023-04-16T09:37:30;99430.88;;;12.82;69.96
58662;BME280;44432;49.786;22.760;2023-04-16T09:40:02;99428.68;;;12.81;69.42
58662;BME280;44432;49.786;22.760;2023-04-16T09:42:35;99433.50;;;12.77;69.28
58662;BME280;44432;49.786;22.760;2023-04-16T09:45:07;99435.17;;;12.80;69.44
58662;BME280;44432;49.786;22.760;2023-04-16T09:47:43;99437.54;;;12.87;69.13
58662;BME280;44432;49.786;22.760;2023-04-16T09:50:18;99437.45;;;12.91;68.65
58662;BME280;44432;49.786;22.760;2023-04-16T09:52:50;99436.73;;;12.98;68.73
58662;BME280;44432;49.786;22.760;2023-04-16T09:55:27;99438.70;;;13.04;68.67
58662;BME280;44432;49.786;22.760;2023-04-16T09:58:01;99434.30;;;13.08;68.59
58662;BME280;44432;49.786;22.760;2023-04-16T10:00:32;99435.37;;;13.20;69.12
58662;BME280;44432;49.786;22.760;2023-04-16T10:03:06;99432.56;;;13.32;68.57
58662;BME280;44432;49.786;22.760;2023-04-16T10:05:37;99430.30;;;13.41;68.49
58662;BME280;44432;49.786;22.760;2023-04-16T10:08:13;99429.69;;;13.54;68.60
58662;BME280;44432;49.786;22.760;2023-04-16T10:10:43;99423.88;;;13.61;68.04
58662;BME280;44432;49.786;22.760;2023-04-16T10:13:14;99418.08;;;13.69;67.96
58662;BME280;44432;49.786;22.760;2023-04-16T10:15:48;99417.07;;;13.76;67.63
58662;BME280;44432;49.786;22.760;2023-04-16T10:18:19;99414.45;;;13.82;67.81
58662;BME280;44432;49.786;22.760;2023-04-16T10:20:51;99420.20;;;13.92;68.01
58662;BME280;44432;49.786;22.760;2023-04-16T10:23:22;99412.81;;;13.96;67.69
58662;BME280;44432;49.786;22.760;2023-04-16T10:25:54;99413.52;;;13.97;67.60
58662;BME280;44432;49.786;22.760;2023-04-16T10:28:25;99415.52;;;14.00;67.43
58662;BME280;44432;49.786;22.760;2023-04-16T10:30:58;99418.04;;;13.99;67.31
58662;BME280;44432;49.786;22.760;2023-04-16T10:33:32;99414.03;;;13.96;67.31
58662;BME280;44432;49.786;22.760;2023-04-16T10:36:10;99412.23;;;14.01;67.55
58662;BME280;44432;49.786;22.760;2023-04-16T10:38:44;99408.71;;;14.13;67.76
58662;BME280;44432;49.786;22.760;2023-04-16T10:41:15;99410.86;;;14.25;67.41
58662;BME280;44432;49.786;22.760;2023-04-16T10:43:48;99408.77;;;14.37;66.85
58662;BME280;44432;49.786;22.760;2023-04-16T10:46:21;99405.70;;;14.46;66.10
58662;BME280;44432;49.786;22.760;2023-04-16T10:48:54;99404.17;;;14.50;65.82
58662;BME280;44432;49.786;22.760;2023-04-16T10:51:27;99403.58;;;14.58;65.47
58662;BME280;44432;49.786;22.760;2023-04-16T10:54:20;99401.48;;;14.65;65.06
58662;BME280;44432;49.786;22.760;2023-04-16T10:56:51;99404.77;;;14.69;64.71
58662;BME280;44432;49.786;22.760;2023-04-16T10:59:24;99402.66;;;14.76;64.70
58662;BME280;44432;49.786;22.760;2023-04-16T11:01:57;99403.69;;;14.88;64.81
58662;BME280;44432;49.786;22.760;2023-04-16T11:04:33;99397.56;;;14.99;64.70
58662;BME280;44432;49.786;22.760;2023-04-16T11:07:14;99399.21;;;15.05;64.12
58662;BME280;44432;49.786;22.760;2023-04-16T11:09:56;99404.27;;;15.04;63.51
58662;BME280;44432;49.786;22.760;2023-04-16T11:12:34;99405.12;;;15.05;63.17
58662;BME280;44432;49.786;22.760;2023-04-16T11:15:07;99403.30;;;15.08;62.86
58662;BME280;44432;49.786;22.760;2023-04-16T11:17:40;99401.40;;;15.14;62.52
58662;BME280;44432;49.786;22.760;2023-04-16T11:20:17;99400.73;;;15.22;62.36
58662;BME280;44432;49.786;22.760;2023-04-16T11:22:48;99399.11;;;15.35;62.60
58662;BME280;44432;49.786;22.760;2023-04-16T11:25:23;99401.38;;;15.50;62.53
58662;BME280;44432;49.786;22.760;2023-04-16T11:27:54;99396.34;;;15.60;62.25
58662;BME280;44432;49.786;22.760;2023-04-16T11:30:31;99394.86;;;15.76;62.25
58662;BME280;44432;49.786;22.760;2023-04-16T11:33:04;99396.47;;;15.94;62.11
58662;BME280;44432;49.786;22.760;2023-04-16T11:35:34;99394.21;;;16.11;61.66
58662;BME280;44432;49.786;22.760;2023-04-16T11:38:05;99392.59;;;16.25;61.18
58662;BME280;44432;49.786;22.760;2023-04-16T11:40:36;99391.71;;;16.39;60.78
58662;BME280;44432;49.786;22.760;2023-04-16T11:43:13;99391.32;;;16.50;60.06
58662;BME280;44432;49.786;22.760;2023-04-16T11:45:56;99394.17;;;16.48;59.47
58662;BME280;44432;49.786;22.760;2023-04-16T11:48:33;99390.83;;;16.49;59.63
58662;BME280;44432;49.786;22.760;2023-04-16T11:51:15;99388.40;;;16.56;59.80
58662;BME280;44432;49.786;22.760;2023-04-16T11:53:50;99392.80;;;16.63;59.32
58662;BME280;44432;49.786;22.760;2023-04-16T11:56:29;99391.67;;;16.58;58.53
58662;BME280;44432;49.786;22.760;2023-04-16T11:59:11;99390.09;;;16.55;58.59
58662;BME280;44432;49.786;22.760;2023-04-16T12:01:44;99385.96;;;16.57;58.65
58662;BME280;44432;49.786;22.760;2023-04-16T12:04:17;99381.61;;;16.59;58.93
58662;BME280;44432;49.786;22.760;2023-04-16T12:07:08;99385.25;;;16.65;59.02
58662;BME280;44432;49.786;22.760;2023-04-16T12:09:41;99386.77;;;16.72;59.00
58662;BME280;44432;49.786;22.760;2023-04-16T12:12:28;99383.33;;;16.83;58.88
58662;BME280;44432;49.786;22.760;2023-04-16T12:15:00;99385.09;;;16.88;58.33
58662;BME280;44432;49.786;22.760;2023-04-16T12:17:32;99379.94;;;16.85;58.28
58662;BME280;44432;49.786;22.760;2023-04-16T12:20:08;99381.35;;;16.83;57.87
58662;BME280;44432;49.786;22.760;2023-04-16T12:22:40;99378.29;;;16.71;57.66
58662;BME280;44432;49.786;22.760;2023-04-16T12:25:14;99374.91;;;16.65;58.09
58662;BME280;44432;49.786;22.760;2023-04-16T12:27:46;99373.05;;;16.70;58.32
58662;BME280;44432;49.786;22.760;2023-04-16T12:30:20;99372.23;;;16.79;58.20
58662;BME280;44432;49.786;22.760;2023-04-16T12:32:52;99369.60;;;16.86;57.96
58662;BME280;44432;49.786;22.760;2023-04-16T12:35:33;99362.39;;;16.90;57.91
58662;BME280;44432;49.786;22.760;2023-04-16T12:38:04;99359.57;;;16.96;57.63
58662;BME280;44432;49.786;22.760;2023-04-16T12:40:35;99359.05;;;17.04;57.49
58662;BME280;44432;49.786;22.760;2023-04-16T12:43:05;99353.04;;;17.11;57.30
58662;BME280;44432;49.786;22.760;2023-04-16T12:45:36;99350.17;;;17.24;57.54
58662;BME280;44432;49.786;22.760;2023-04-16T12:48:07;99347.53;;;17.41;56.99
58662;BME280;44432;49.786;22.760;2023-04-16T12:50:38;99350.66;;;17.53;56.54
58662;BME280;44432;49.786;22.760;2023-04-16T12:53:12;99349.27;;;17.57;56.08
58662;BME280;44432;49.786;22.760;2023-04-16T12:55:43;99350.01;;;17.50;56.07
58662;BME280;44432;49.786;22.760;2023-04-16T12:58:14;99349.73;;;17.42;55.55
58662;BME280;44432;49.786;22.760;2023-04-16T13:00:44;99350.17;;;17.30;55.54
58662;BME280;44432;49.786;22.760;2023-04-16T13:03:15;99349.26;;;17.23;55.76
58662;BME280;44432;49.786;22.760;2023-04-16T13:05:46;99352.52;;;17.23;55.69
58662;BME280;44432;49.786;22.760;2023-04-16T13:08:16;99341.94;;;17.29;55.66
58662;BME280;44432;49.786;22.760;2023-04-16T13:10:47;99343.23;;;17.44;55.55
58662;BME280;44432;49.786;22.760;2023-04-16T13:13:18;99337.23;;;17.55;55.24
58662;BME280;44432;49.786;22.760;2023-04-16T13:15:48;99347.10;;;17.63;54.83
58662;BME280;44432;49.786;22.760;2023-04-16T13:18:19;99344.03;;;17.58;54.54